Auburn, Kentucky
Current Conditions -  °F | °C
As of 11:53 AM on Friday 28 Nov 2014 (Local Time) from KBWG Reporting Station
Clear Clear  
Wind Chill: 34°   Ceiling: Unl
Heat Index: 40°   Visibility: 10mi
Dew Point: 21°   Wind: 8mph
Humidity: 47%   Direction: 190°S
Pressure: 30.33"   Gusts: NA
Location:  36.86°N, 86.71°W
Report Text: KBWG 281753Z AUTO 19007KT 10SM CLR 04/M06 A3033 RMK AO2 SLP275 T00441061 10044 21039 58030
Loading
Personal Weather Stations






























Interactive Weather Map New forecast layout! Learn more

10-Day Weather Forecast

Advertisements
Track Severe Weather on mobile